CBCO2: Big Creek near Childers, OK

                                SHEF ID:       CBCO2     Big Creek near Childers, OK
STATION TYPE:

PRECIP STAGE RIV-FLOW VOLTAGE BAT-LOAD
in ft cfs volt volt
Ccp-Rev Ccp-Rev Ccp-Rev Ccp-Rev Ccp-Rev
(America/Chicago)
05/05 00:00 0.27 9.23 52 12.99 12.50
05/05 01:00 0.46 9.24 54 12.96 12.46
05/05 02:00 0.05 9.30 64 12.96 12.46
05/05 03:00 0.00 9.35 78 12.94 12.44
05/05 04:00 0.00 10.86 811 12.93 12.42
05/05 05:00 0.00 12.63 1431 12.92 12.41
05/05 06:00 0.00 13.08 1588 12.90 12.40
05/05 07:00 0.00 13.16 1616 12.89 12.42
05/05 08:00 0.00 12.92 1532 12.89 12.40
05/05 09:00 0.03 12.52 1392 12.80 12.42
05/05 10:00 0.09 12.11 1249 12.86 12.37
05/05 11:00 0.00 11.74 1119 12.94 12.42
05/05 12:00 0.00 11.48 1028 13.00 12.48
05/05 13:00 0.00 11.26 951 13.03 12.58
05/05 14:00 0.00 11.06 881 13.09 12.63
05/05 15:00 0.00 10.89 822 13.17 12.67
05/05 16:00 0.00 10.77 780 13.18 12.73
05/05 17:00 0.00 10.64 734 13.22 12.73
05/05 18:00 0.00 10.56 706 13.05 12.67
05/05 19:00 0.00 10.44 664 12.93 12.54
05/05 20:00 0.00 10.35 624 12.88 12.47
05/05 21:00 0.00 10.27 573 12.85 12.44
05/05 22:00 0.00 10.20 528 12.85 12.42
05/05 23:00 0.00 10.16 502 12.83 12.41
Data processed at Wed 06May2026 04:38 GMT

NOTICE: If you are parsing this page

Please convert to using our Data API. Starting early 2026 we will be migrating to: https://water.usace.army.mil with modern pages rendered in JavaScript. When this migration completes you will no longer be able to scrape this page! CWMSDataAPI (CDA)

Timeseries IDs (TSIDs)

TSIDs used from left to right in the data table
CHIB.Precip-Inc.Total.1Hour.1Hour.Ccp-Rev
CHIB.Stage.Inst.1Hour.0.Ccp-Rev
CHIB.Flow.Inst.1Hour.0.Ccp-Rev
CHIB.Volt-Battery.Inst.1Hour.0.Ccp-Rev
CHIB.Volt-Battery Load.Inst.1Hour.0.Ccp-Rev

                            

All information presented herein is the property of the government of the United States of America and may be revised or deleted at any time without prior notice. Dissemination of this information without the expressed written consent of the Public Affairs Office, Tulsa District U.S. Army Corps of Engineers is strictly prohibited. These data are gathered electronically and, as presented, have NOT undergone any form of quality control. These data are NOT guaranteed to be valid or correct.